Terminal Aerodrome Forecast
Issued by NWS Billings, MT

Home | Current Version | Previous Version | Graphics & Text | Print | Product List | Glossary On
Versions: 1 2 3 4 5 6 7 8 9 10 11 12 13 14 15
000
FTUS45 KBYZ 132320
TAFMLS
TAF
KMLS 132320Z 1400/1424 34014KT P6SM VCSH SCT060 BKN080
     FM140200 33010KT P6SM SCT080
     FM141400 28008KT P6SM SCT100=

USA.gov is the U.S. government's official web portal to all federal, state and local government web resources and services.